createdAt,value
2019-05-25T00:00:27.109Z,1.60
2019-05-25T00:02:56.846Z,1.60
2019-05-25T00:05:26.682Z,1.50
2019-05-25T00:07:56.581Z,1.63
2019-05-25T00:10:26.856Z,1.60
2019-05-25T00:12:56.589Z,1.70
2019-05-25T00:15:26.375Z,1.43
2019-05-25T00:17:57.018Z,1.80
2019-05-25T00:20:26.721Z,1.63
2019-05-25T00:22:57.031Z,1.80
2019-05-25T00:25:26.876Z,1.63
2019-05-25T00:27:56.540Z,2.00
2019-05-25T00:30:27.464Z,1.70
2019-05-25T00:32:57.288Z,1.83
2019-05-25T00:35:27.427Z,1.90
2019-05-25T00:37:57.183Z,1.97
2019-05-25T00:40:26.969Z,2.20
2019-05-25T00:42:56.692Z,1.60
2019-05-25T00:45:26.382Z,1.50
2019-05-25T00:47:56.087Z,1.77
2019-05-25T00:50:25.809Z,2.00
2019-05-25T00:52:55.714Z,1.80
2019-05-25T00:55:25.408Z,1.95
2019-05-25T00:57:55.098Z,1.90
2019-05-25T01:00:25.049Z,1.97
2019-05-25T01:02:54.771Z,2.00
2019-05-25T01:05:24.630Z,1.90
2019-05-25T01:07:54.281Z,1.77
2019-05-25T01:10:24.015Z,2.17
2019-05-25T01:12:53.773Z,2.00
2019-05-25T01:15:23.648Z,2.10
2019-05-25T01:17:53.301Z,2.00
2019-05-25T01:20:23.266Z,2.23
2019-05-25T01:22:52.989Z,2.60
2019-05-25T01:25:23.086Z,2.20
2019-05-25T01:27:52.721Z,2.20
2019-05-25T01:30:22.531Z,2.50
2019-05-25T01:32:52.197Z,3.10
2019-05-25T01:35:22.111Z,2.87
2019-05-25T01:37:51.797Z,2.97
2019-05-25T01:40:21.513Z,2.57
2019-05-25T01:42:51.311Z,2.10
2019-05-25T01:45:21.110Z,2.60
2019-05-25T01:47:51.009Z,2.25
2019-05-25T01:50:20.717Z,2.27
2019-05-25T01:52:50.648Z,2.50
2019-05-25T01:55:20.359Z,2.87
2019-05-25T01:57:50.052Z,2.80
2019-05-25T02:00:20.159Z,2.40
2019-05-25T02:02:49.848Z,2.60
2019-05-25T02:05:19.569Z,2.80
2019-05-25T02:07:49.374Z,3.03
2019-05-25T02:10:19.219Z,2.67
2019-05-25T02:12:48.866Z,2.65
2019-05-25T02:15:18.766Z,2.57
2019-05-25T02:17:48.492Z,2.87
2019-05-25T02:20:18.413Z,2.57
2019-05-25T02:22:48.425Z,3.00
2019-05-25T02:25:19.005Z,2.37
2019-05-25T02:27:49.334Z,2.93
2019-05-25T02:30:19.211Z,2.92
2019-05-25T02:32:48.868Z,3.00
2019-05-25T02:35:24.940Z,2.67
2019-05-25T02:37:54.750Z,2.93
2019-05-25T02:40:25.272Z,3.03
2019-05-25T02:42:55.067Z,2.70
2019-05-25T02:45:25.054Z,2.90
2019-05-25T02:47:54.754Z,3.10
2019-05-25T02:50:24.780Z,3.43
2019-05-25T02:52:54.530Z,3.22
2019-05-25T02:55:33.860Z,3.30
2019-05-25T02:57:55.897Z,3.30
2019-05-25T03:00:33.008Z,3.50
2019-05-25T03:03:03.217Z,3.53
2019-05-25T03:05:33.417Z,3.30
2019-05-25T03:08:03.753Z,3.37
2019-05-25T03:10:33.579Z,3.77
2019-05-25T03:13:04.138Z,3.27
2019-05-25T03:15:33.843Z,3.53
2019-05-25T03:18:03.738Z,3.53
2019-05-25T03:20:33.625Z,3.53
2019-05-25T03:23:03.498Z,3.57
2019-05-25T03:25:46.801Z,3.63
2019-05-25T03:28:04.919Z,3.45
2019-05-25T03:30:35.444Z,3.80
2019-05-25T03:33:05.406Z,3.73
2019-05-25T03:35:35.123Z,3.93
2019-05-25T03:38:04.947Z,3.87
2019-05-25T03:40:34.709Z,3.47
2019-05-25T03:43:04.574Z,4.40
2019-05-25T03:45:34.347Z,4.27
2019-05-25T03:48:04.192Z,3.97
2019-05-25T03:50:34.053Z,3.67
2019-05-25T03:53:03.762Z,4.50
2019-05-25T03:55:34.691Z,4.30
2019-05-25T03:58:04.529Z,4.05
2019-05-25T04:00:35.702Z,3.57
2019-05-25T04:03:06.190Z,5.00
2019-05-25T04:05:35.972Z,4.23
2019-05-25T04:08:05.939Z,4.53
2019-05-25T04:10:38.676Z,4.70
2019-05-25T04:13:07.228Z,6.13
2019-05-25T04:15:37.033Z,6.37
2019-05-25T04:18:06.674Z,6.87
2019-05-25T04:20:36.526Z,7.47
2019-05-25T04:23:06.270Z,6.70
2019-05-25T04:25:36.003Z,5.90
2019-05-25T04:28:05.729Z,5.37
2019-05-25T04:30:35.593Z,5.40
2019-05-25T04:33:05.276Z,4.60
2019-05-25T04:35:34.987Z,4.57
2019-05-25T04:38:04.727Z,4.00
2019-05-25T04:40:34.477Z,3.53
2019-05-25T04:43:04.367Z,3.50
2019-05-25T04:45:34.057Z,4.27
2019-05-25T04:48:03.766Z,3.60
2019-05-25T04:50:33.520Z,3.20
2019-05-25T04:53:03.405Z,3.77
2019-05-25T04:55:33.190Z,3.67
2019-05-25T04:58:02.802Z,3.50
2019-05-25T05:00:32.475Z,3.30
2019-05-25T05:03:02.123Z,3.17
2019-05-25T05:05:31.859Z,3.83
2019-05-25T05:08:01.631Z,3.87
2019-05-25T05:10:31.322Z,3.75
2019-05-25T05:13:01.051Z,3.80
2019-05-25T05:15:30.667Z,3.77
2019-05-25T05:18:00.611Z,3.87
2019-05-25T05:20:31.255Z,3.30
2019-05-25T05:23:01.022Z,3.30
2019-05-25T05:25:30.813Z,3.57
2019-05-25T05:28:00.463Z,3.12
2019-05-25T05:30:33.732Z,3.60
2019-05-25T05:33:05.028Z,3.07
2019-05-25T05:35:38.667Z,3.20
2019-05-25T05:38:07.126Z,3.37
2019-05-25T05:40:38.019Z,3.87
2019-05-25T05:43:10.844Z,3.97
2019-05-25T05:45:42.200Z,3.17
2019-05-25T05:48:13.774Z,3.90
2019-05-25T05:50:45.599Z,3.92
2019-05-25T05:53:15.327Z,3.93
2019-05-25T05:55:44.984Z,4.17
2019-05-25T05:58:14.764Z,3.67
2019-05-25T06:00:45.252Z,4.00
2019-05-25T06:03:15.169Z,3.93
2019-05-25T06:05:44.938Z,3.63
2019-05-25T06:08:14.969Z,3.70
2019-05-25T06:10:45.052Z,3.70
2019-05-25T06:13:14.731Z,3.57
2019-05-25T06:15:44.501Z,3.67
2019-05-25T06:18:14.139Z,4.33
2019-05-25T06:20:43.866Z,4.30
2019-05-25T06:23:13.515Z,4.33
2019-05-25T06:25:43.252Z,4.90
2019-05-25T06:28:12.868Z,5.13
2019-05-25T06:30:42.598Z,5.00
2019-05-25T06:33:12.508Z,4.25
2019-05-25T06:35:42.573Z,4.77
2019-05-25T06:38:12.525Z,4.63
2019-05-25T06:40:42.940Z,4.47
2019-05-25T06:43:12.815Z,5.03
2019-05-25T06:45:42.621Z,4.30
2019-05-25T06:48:12.375Z,5.50
2019-05-25T06:50:42.012Z,5.10
2019-05-25T06:53:11.700Z,5.57
2019-05-25T06:55:41.378Z,5.87
2019-05-25T06:58:11.050Z,5.10
2019-05-25T07:00:40.693Z,5.83
2019-05-25T07:03:10.455Z,5.70
2019-05-25T07:05:40.247Z,5.07
2019-05-25T07:08:10.973Z,5.30
2019-05-25T07:10:40.622Z,5.07
2019-05-25T07:13:10.338Z,4.23
2019-05-25T07:15:40.156Z,4.57
2019-05-25T07:18:09.807Z,4.60
2019-05-25T07:20:39.480Z,4.63
2019-05-25T07:23:09.095Z,4.33
2019-05-25T07:25:38.815Z,4.50
2019-05-25T07:28:08.548Z,5.10
2019-05-25T07:30:38.278Z,4.73
2019-05-25T07:33:08.132Z,4.30
2019-05-25T07:35:37.883Z,5.27
2019-05-25T07:38:07.791Z,4.80
2019-05-25T07:40:37.411Z,4.70
2019-05-25T07:43:07.403Z,4.93
2019-05-25T07:45:37.079Z,4.37
2019-05-25T07:48:06.828Z,4.40
2019-05-25T07:50:36.551Z,4.08
2019-05-25T07:53:06.316Z,3.43
2019-05-25T07:55:36.012Z,3.50
2019-05-25T07:58:16.840Z,3.23
2019-05-25T08:00:37.551Z,3.23
2019-05-25T08:03:07.232Z,3.27
2019-05-25T08:05:36.843Z,3.10
2019-05-25T08:08:06.563Z,3.03
2019-05-25T08:10:36.323Z,3.23
2019-05-25T08:13:06.472Z,3.27
2019-05-25T08:15:36.304Z,3.83
2019-05-25T08:18:06.096Z,2.80
2019-05-25T08:20:35.939Z,3.17
2019-05-25T08:23:05.818Z,2.70
2019-05-25T08:25:35.646Z,3.42
2019-05-25T08:28:05.390Z,3.27
2019-05-25T08:30:35.058Z,3.70
2019-05-25T08:33:04.914Z,3.08
2019-05-25T08:35:34.792Z,2.97
2019-05-25T08:38:05.184Z,2.72
2019-05-25T08:40:34.802Z,3.00
2019-05-25T08:43:04.626Z,2.27
2019-05-25T08:45:34.440Z,4.97
2019-05-25T08:48:04.125Z,2.27
2019-05-25T08:50:38.373Z,1.88
2019-05-25T08:53:05.755Z,1.65
2019-05-25T08:55:35.634Z,2.16
2019-05-25T08:58:06.564Z,1.70
2019-05-25T09:00:36.355Z,2.20
2019-05-25T09:03:06.072Z,2.30
2019-05-25T09:05:35.821Z,1.85
2019-05-25T09:08:05.908Z,2.40
2019-05-25T09:10:35.724Z,2.20
2019-05-25T09:13:05.517Z,2.02
2019-05-25T09:15:35.393Z,2.17
2019-05-25T09:18:05.240Z,2.80
2019-05-25T09:20:35.093Z,2.43
2019-05-25T09:23:04.870Z,2.60
2019-05-25T09:25:34.539Z,2.25
2019-05-25T09:28:04.348Z,2.40
2019-05-25T09:30:35.388Z,2.02
2019-05-25T09:33:05.305Z,2.22
2019-05-25T09:35:35.086Z,2.10
2019-05-25T09:38:04.864Z,2.73
2019-05-25T09:40:34.931Z,2.27
2019-05-25T09:43:04.785Z,2.30
2019-05-25T09:45:36.205Z,2.13
2019-05-25T09:48:05.982Z,2.62
2019-05-25T09:50:35.831Z,2.80
2019-05-25T09:53:05.592Z,2.47
2019-05-25T09:55:35.373Z,2.40
2019-05-25T09:58:06.161Z,2.17
2019-05-25T10:00:44.913Z,2.42
2019-05-25T10:03:15.083Z,2.02
2019-05-25T10:05:45.932Z,2.18
2019-05-25T10:08:20.201Z,2.33
2019-05-25T10:10:50.260Z,2.58
2019-05-25T10:13:20.140Z,2.50
2019-05-25T10:15:50.844Z,2.50
2019-05-25T10:18:20.513Z,2.30
2019-05-25T10:20:50.361Z,2.55
2019-05-25T10:23:22.159Z,2.47
2019-05-25T10:25:52.004Z,2.35
2019-05-25T10:28:21.726Z,2.65
2019-05-25T10:30:51.555Z,2.40
2019-05-25T10:33:21.974Z,2.22
2019-05-25T10:35:51.880Z,2.47
2019-05-25T10:38:22.644Z,2.40
2019-05-25T10:40:52.401Z,2.83
2019-05-25T10:43:22.174Z,2.60
2019-05-25T10:46:10.115Z,2.83
2019-05-25T10:48:40.588Z,2.42
2019-05-25T10:51:17.256Z,2.83
2019-05-25T10:54:08.712Z,2.95
2019-05-25T10:56:51.982Z,2.95
2019-05-25T10:59:52.416Z,2.60
2019-05-25T11:02:35.172Z,2.85
2019-05-25T11:05:06.033Z,2.02
2019-05-25T11:07:43.475Z,2.80
2019-05-25T11:10:14.545Z,2.67
2019-05-25T11:12:51.511Z,2.90
2019-05-25T11:15:27.620Z,2.37
2019-05-25T11:18:00.890Z,2.47
2019-05-25T11:20:34.740Z,2.70
2019-05-25T11:23:14.633Z,2.40
2019-05-25T11:25:48.671Z,3.40
2019-05-25T11:28:19.700Z,2.42
2019-05-25T11:30:55.770Z,2.60
2019-05-25T11:33:32.055Z,3.90
2019-05-25T11:36:10.658Z,3.07
2019-05-25T11:38:48.347Z,2.95
2019-05-25T11:41:56.384Z,2.90
2019-05-25T11:44:37.858Z,2.50
2019-05-25T11:47:13.976Z,2.50
2019-05-25T11:49:57.459Z,2.35
2019-05-25T11:52:33.449Z,3.15
2019-05-25T11:55:15.749Z,2.80
2019-05-25T11:57:55.945Z,3.20
2019-05-25T12:00:37.978Z,2.68
2019-05-25T12:03:16.156Z,2.80
2019-05-25T12:05:54.013Z,3.10
2019-05-25T12:08:37.013Z,3.02
2019-05-25T12:11:11.530Z,3.12
2019-05-25T12:13:49.990Z,3.47
2019-05-25T12:16:27.698Z,3.58
2019-05-25T12:19:05.428Z,3.10
2019-05-25T12:21:40.477Z,3.30
2019-05-25T12:24:16.561Z,2.85
2019-05-25T12:27:02.827Z,2.90
2019-05-25T12:29:42.550Z,3.47
2019-05-25T12:32:19.555Z,3.80
2019-05-25T12:34:53.460Z,3.40
2019-05-25T12:37:28.631Z,3.90
2019-05-25T12:40:10.855Z,3.23
2019-05-25T12:43:03.721Z,3.77
2019-05-25T12:45:36.524Z,3.50
2019-05-25T12:51:09.013Z,3.67
2019-05-25T12:53:45.873Z,3.67
2019-05-25T12:56:23.802Z,4.37
2019-05-25T12:58:55.402Z,3.58
2019-05-25T13:01:44.969Z,3.72
2019-05-25T13:04:28.014Z,3.37
2019-05-25T13:06:59.223Z,4.20
2019-05-25T13:09:32.863Z,4.40
2019-05-25T13:12:22.596Z,3.85
2019-05-25T13:15:22.279Z,3.95
2019-05-25T13:17:56.795Z,3.45
2019-05-25T13:20:31.184Z,3.42
2019-05-25T13:23:05.348Z,4.33
2019-05-25T13:25:37.250Z,3.70
2019-05-25T13:28:11.302Z,3.25
2019-05-25T13:30:46.772Z,3.50
2019-05-25T13:33:16.850Z,3.90
2019-05-25T13:35:46.577Z,3.93
2019-05-25T13:38:16.212Z,3.58
2019-05-25T13:40:46.100Z,3.00
2019-05-25T13:43:15.979Z,3.40
2019-05-25T13:45:46.198Z,3.90
2019-05-25T13:48:15.924Z,3.77
2019-05-25T13:50:45.802Z,4.30
2019-05-25T13:53:16.023Z,4.10
2019-05-25T13:55:45.806Z,3.30
2019-05-25T13:58:18.426Z,3.60
2019-05-25T14:00:52.887Z,3.17
2019-05-25T14:03:26.895Z,3.65
2019-05-25T14:06:00.043Z,3.67
2019-05-25T14:08:31.622Z,3.52
2019-05-25T14:11:04.095Z,3.23
2019-05-25T14:13:34.575Z,3.35
2019-05-25T14:16:07.499Z,3.20
2019-05-25T14:18:48.857Z,3.10
2019-05-25T14:21:24.450Z,4.10
2019-05-25T14:23:59.051Z,3.62
2019-05-25T14:26:29.285Z,3.47
2019-05-25T14:29:10.211Z,3.52
2019-05-25T14:31:46.263Z,3.33
2019-05-25T14:34:17.017Z,3.62
2019-05-25T14:36:47.806Z,3.10
2019-05-25T14:39:18.294Z,3.72
2019-05-25T14:41:48.700Z,2.80
2019-05-25T14:44:19.149Z,3.00
2019-05-25T14:46:50.627Z,3.20
2019-05-25T14:49:20.878Z,3.00
2019-05-25T14:51:51.877Z,2.72
2019-05-25T14:54:23.518Z,3.50
2019-05-25T14:56:53.990Z,3.05
2019-05-25T14:59:24.712Z,2.90
2019-05-25T15:02:03.966Z,3.15
2019-05-25T15:04:36.270Z,3.22
2019-05-25T15:07:13.419Z,2.75
2019-05-25T15:10:00.520Z,2.80
2019-05-25T15:12:35.787Z,3.02
2019-05-25T15:15:08.207Z,2.85
2019-05-25T15:17:38.933Z,2.80
2019-05-25T15:20:14.794Z,2.70
2019-05-25T15:22:47.046Z,1.98
2019-05-25T15:25:22.082Z,2.33
2019-05-25T15:27:59.893Z,2.00
2019-05-25T15:30:30.389Z,2.20
2019-05-25T15:33:01.065Z,2.00
2019-05-25T15:35:33.928Z,2.55
2019-05-25T15:38:10.539Z,2.05
2019-05-25T15:40:44.055Z,1.85
2019-05-25T15:43:13.834Z,1.85
2019-05-25T15:45:43.788Z,2.22
2019-05-25T15:48:13.516Z,2.40
2019-05-25T15:50:43.258Z,2.58
2019-05-25T15:53:12.979Z,2.47
2019-05-25T15:55:42.830Z,2.10
2019-05-25T15:58:12.507Z,2.20
2019-05-25T16:00:47.390Z,2.15
2019-05-25T16:03:18.431Z,2.70
2019-05-25T16:05:49.279Z,2.10
2019-05-25T16:08:20.152Z,2.05
2019-05-25T16:10:49.823Z,2.03
2019-05-25T16:13:19.565Z,2.05
2019-05-25T16:15:49.182Z,2.47
2019-05-25T16:18:19.071Z,2.10
2019-05-25T16:20:49.213Z,2.15
2019-05-25T16:23:18.883Z,2.10
2019-05-25T16:25:48.744Z,2.40
2019-05-25T16:28:18.377Z,2.20
2019-05-25T16:30:48.079Z,1.92
2019-05-25T16:33:18.036Z,2.08
2019-05-25T16:35:47.719Z,2.37
2019-05-25T16:38:17.725Z,2.00
2019-05-25T16:40:47.405Z,2.07
2019-05-25T16:43:17.157Z,2.30
2019-05-25T16:45:47.903Z,2.02
2019-05-25T16:48:17.687Z,2.17
2019-05-25T16:50:47.679Z,2.17
2019-05-25T16:53:17.338Z,2.62
2019-05-25T16:55:47.059Z,2.60
2019-05-25T16:58:17.108Z,2.50
2019-05-25T17:00:46.770Z,2.65
2019-05-25T17:03:27.448Z,2.37
2019-05-25T17:05:48.681Z,2.00
2019-05-25T17:08:18.456Z,2.17
2019-05-25T17:10:48.110Z,2.45
2019-05-25T17:13:17.953Z,2.30
2019-05-25T17:15:47.694Z,2.30
2019-05-25T17:18:17.499Z,2.20
2019-05-25T17:20:49.075Z,2.90
2019-05-25T17:23:18.898Z,2.37
2019-05-25T17:25:48.725Z,2.60
2019-05-25T17:28:18.384Z,2.65
2019-05-25T17:30:48.174Z,2.02
2019-05-25T17:33:17.955Z,2.10
2019-05-25T17:35:47.740Z,2.47
2019-05-25T17:38:17.431Z,2.13
2019-05-25T17:40:47.139Z,1.92
2019-05-25T17:43:16.952Z,2.07
2019-05-25T17:45:46.700Z,2.12
2019-05-25T17:48:16.370Z,2.13
2019-05-25T17:50:47.010Z,2.40
2019-05-25T17:53:16.883Z,2.00
2019-05-25T17:55:46.775Z,2.20
2019-05-25T17:58:16.892Z,2.77
2019-05-25T18:00:49.910Z,2.43
2019-05-25T18:03:20.288Z,2.40
2019-05-25T18:05:54.053Z,2.12
2019-05-25T18:08:28.489Z,2.30
2019-05-25T18:11:01.703Z,2.50
2019-05-25T18:13:38.620Z,2.20
2019-05-25T18:16:16.484Z,2.17
2019-05-25T18:18:58.956Z,2.63
2019-05-25T18:21:33.119Z,2.50
2019-05-25T18:24:28.555Z,2.40
2019-05-25T18:27:08.892Z,2.07
2019-05-25T18:29:50.504Z,2.60
2019-05-25T18:32:26.955Z,2.70
2019-05-25T18:35:06.532Z,3.00
2019-05-25T18:37:51.937Z,2.50
2019-05-25T18:40:37.553Z,2.37
2019-05-25T18:43:22.154Z,2.57
2019-05-25T18:45:53.451Z,2.70
2019-05-25T18:48:23.302Z,2.63
2019-05-25T18:50:53.209Z,3.02
2019-05-25T18:53:23.177Z,2.17
2019-05-25T18:55:53.060Z,2.70
2019-05-25T18:58:23.002Z,2.57
2019-05-25T19:00:52.746Z,2.93
2019-05-25T19:03:22.503Z,2.83
2019-05-25T19:05:53.146Z,2.60
2019-05-25T19:08:22.854Z,2.20
2019-05-25T19:10:52.500Z,2.37
2019-05-25T19:13:22.270Z,2.20
2019-05-25T19:15:52.082Z,2.47
2019-05-25T19:18:22.068Z,2.80
2019-05-25T19:20:51.989Z,2.00
2019-05-25T19:23:21.927Z,2.00
2019-05-25T19:25:51.622Z,2.30
2019-05-25T19:28:21.317Z,2.33
2019-05-25T19:30:51.414Z,2.23
2019-05-25T19:33:21.140Z,1.83
2019-05-25T19:35:54.017Z,2.37
2019-05-25T19:38:22.515Z,2.60
2019-05-25T19:40:52.437Z,2.60
2019-05-25T19:43:22.268Z,2.37
2019-05-25T19:45:52.122Z,2.67
2019-05-25T19:48:21.957Z,2.60
2019-05-25T19:50:51.810Z,2.90
2019-05-25T19:53:22.480Z,2.87
2019-05-25T19:55:52.230Z,2.87
2019-05-25T19:58:21.979Z,2.80
2019-05-25T20:00:51.893Z,2.40
2019-05-25T20:03:21.656Z,2.95
2019-05-25T20:05:52.571Z,2.70
2019-05-25T20:08:22.377Z,3.17
2019-05-25T20:10:55.312Z,3.13
2019-05-25T20:13:24.372Z,2.80
2019-05-25T20:15:54.297Z,2.87
2019-05-25T20:18:25.373Z,2.80
2019-05-25T20:20:59.696Z,2.77
2019-05-25T20:23:31.924Z,3.30
2019-05-25T20:26:04.026Z,3.23
2019-05-25T20:28:34.665Z,3.30
2019-05-25T20:31:05.711Z,3.10
2019-05-25T20:33:39.779Z,3.83
2019-05-25T20:36:12.947Z,3.15
2019-05-25T20:38:48.371Z,2.80
2019-05-25T20:41:20.560Z,2.92
2019-05-25T20:43:51.465Z,3.17
2019-05-25T20:46:21.610Z,3.43
2019-05-25T20:48:52.577Z,3.42
2019-05-25T20:51:23.872Z,3.97
2019-05-25T20:53:55.827Z,3.80
2019-05-25T20:56:27.026Z,3.93
2019-05-25T20:58:57.517Z,4.08
2019-05-25T21:01:29.142Z,4.33
2019-05-25T21:04:00.961Z,4.43
2019-05-25T21:06:32.009Z,4.90
2019-05-25T21:09:05.551Z,5.03
2019-05-25T21:11:36.103Z,4.90
2019-05-25T21:14:06.489Z,6.10
2019-05-25T21:16:37.821Z,6.03
2019-05-25T21:19:11.991Z,6.00
2019-05-25T21:21:44.029Z,6.08
2019-05-25T21:24:14.466Z,6.20
2019-05-25T21:26:45.492Z,6.77
2019-05-25T21:29:16.888Z,6.45
2019-05-25T21:31:47.572Z,6.30
2019-05-25T21:34:22.580Z,6.50
2019-05-25T21:36:53.350Z,6.00
2019-05-25T21:39:24.486Z,5.80
2019-05-25T21:41:55.525Z,6.27
2019-05-25T21:44:26.341Z,5.58
2019-05-25T21:46:56.324Z,5.57
2019-05-25T21:49:26.604Z,5.85
2019-05-25T21:51:56.407Z,6.08
2019-05-25T21:54:26.295Z,5.87
2019-05-25T21:56:55.967Z,6.30
2019-05-25T21:59:25.984Z,6.57
2019-05-25T22:01:55.850Z,5.65
2019-05-25T22:04:25.731Z,6.20
2019-05-25T22:06:55.496Z,6.67
2019-05-25T22:09:26.272Z,6.53
2019-05-25T22:11:56.261Z,7.17
2019-05-25T22:14:28.318Z,6.17
2019-05-25T22:16:58.226Z,6.57
2019-05-25T22:19:28.165Z,6.00
2019-05-25T22:21:58.842Z,6.53
2019-05-25T22:24:28.598Z,6.87
2019-05-25T22:26:58.462Z,7.47
2019-05-25T22:29:28.124Z,6.27
2019-05-25T22:31:58.324Z,5.58
2019-05-25T22:34:28.209Z,6.00
2019-05-25T22:36:58.251Z,6.67
2019-05-25T22:39:28.088Z,6.87
2019-05-25T22:41:57.765Z,5.97
2019-05-25T22:44:27.711Z,6.80
2019-05-25T22:46:57.712Z,7.60
2019-05-25T22:49:27.378Z,6.57
2019-05-25T22:51:57.878Z,6.53
2019-05-25T22:54:27.771Z,6.47
2019-05-25T22:56:58.186Z,6.47
2019-05-25T22:59:29.646Z,6.40
2019-05-25T23:01:59.707Z,7.28
2019-05-25T23:04:34.749Z,6.03
2019-05-25T23:07:06.011Z,6.12
2019-05-25T23:09:40.886Z,6.47
2019-05-25T23:12:11.493Z,5.97
2019-05-25T23:14:41.587Z,5.80
2019-05-25T23:17:11.565Z,6.03
2019-05-25T23:19:41.509Z,6.08
2019-05-25T23:22:11.560Z,6.80
2019-05-25T23:24:41.817Z,6.90
2019-05-25T23:27:11.896Z,6.63
2019-05-25T23:29:42.027Z,6.30
2019-05-25T23:32:12.417Z,6.77
2019-05-25T23:34:42.529Z,7.07
2019-05-25T23:37:15.025Z,6.28
2019-05-25T23:39:44.400Z,7.27
2019-05-25T23:42:15.206Z,7.33
2019-05-25T23:44:45.344Z,7.33
2019-05-25T23:47:16.468Z,6.72
2019-05-25T23:49:46.777Z,7.00
2019-05-25T23:52:16.627Z,7.17
2019-05-25T23:54:46.982Z,7.12
2019-05-25T23:57:17.218Z,7.20
2019-05-25T23:59:47.420Z,6.87
